createdAt,value
2018-12-06T00:00:39.058Z,96823.30
2018-12-06T00:03:07.789Z,96815.78
2018-12-06T00:05:36.217Z,96811.72
2018-12-06T00:08:16.742Z,96816.20
2018-12-06T00:10:46.004Z,96805.92
2018-12-06T00:13:14.498Z,96807.80
2018-12-06T00:15:44.501Z,96801.33
2018-12-06T00:18:13.534Z,96803.99
2018-12-06T00:20:41.826Z,96798.10
2018-12-06T00:23:10.105Z,96803.03
2018-12-06T00:25:38.382Z,96806.21
2018-12-06T00:28:06.670Z,96800.00
2018-12-06T00:30:37.640Z,96796.16
2018-12-06T00:33:06.036Z,96807.07
2018-12-06T00:35:34.416Z,96800.59
2018-12-06T00:38:02.837Z,96792.08
2018-12-06T00:40:31.100Z,96789.76
2018-12-06T00:42:59.385Z,96787.27
2018-12-06T00:45:27.649Z,96781.95
2018-12-06T00:47:55.933Z,96781.43
2018-12-06T00:50:24.207Z,96780.91
2018-12-06T00:52:52.497Z,96787.86
2018-12-06T00:55:20.758Z,96781.06
2018-12-06T00:57:49.054Z,96782.09
2018-12-06T01:00:17.425Z,96787.79
2018-12-06T01:02:45.733Z,96793.17
2018-12-06T01:05:14.106Z,96803.19
2018-12-06T01:07:42.402Z,96792.83
2018-12-06T01:10:11.094Z,96788.25
2018-12-06T01:12:39.525Z,96793.53
2018-12-06T01:15:08.053Z,96789.12
2018-12-06T01:17:36.353Z,96795.50
2018-12-06T01:20:06.189Z,96788.88
2018-12-06T01:22:34.450Z,96793.46
2018-12-06T01:25:02.749Z,96784.14
2018-12-06T01:27:31.490Z,96797.30
2018-12-06T01:30:00.501Z,96805.63
2018-12-06T01:32:28.761Z,96808.11
2018-12-06T01:34:57.258Z,96810.66
2018-12-06T01:37:25.518Z,96807.19
2018-12-06T01:39:53.806Z,96811.48
2018-12-06T01:42:22.066Z,96818.31
2018-12-06T01:44:50.345Z,96825.61
2018-12-06T01:47:18.822Z,96824.06
2018-12-06T01:49:47.330Z,96827.41
2018-12-06T01:52:15.794Z,96829.20
2018-12-06T01:54:44.297Z,96827.17
2018-12-06T01:57:12.611Z,96829.44
2018-12-06T01:59:40.908Z,96826.72
2018-12-06T02:02:09.210Z,96825.54
2018-12-06T02:04:37.697Z,96826.88
2018-12-06T02:07:06.691Z,96827.77
2018-12-06T02:09:35.186Z,96831.29
2018-12-06T02:12:04.277Z,96827.10
2018-12-06T02:14:32.677Z,96824.81
2018-12-06T02:17:01.123Z,96821.03
2018-12-06T02:19:29.630Z,96818.73
2018-12-06T02:21:58.681Z,96812.12
2018-12-06T02:24:26.974Z,96812.52
2018-12-06T02:26:55.585Z,96806.27
2018-12-06T02:29:26.058Z,96802.38
2018-12-06T02:31:54.338Z,96796.65
2018-12-06T02:34:22.604Z,96791.84
2018-12-06T02:36:50.902Z,96786.40
2018-12-06T02:39:19.180Z,96782.22
2018-12-06T02:41:47.478Z,96785.95
2018-12-06T02:44:15.741Z,96791.95
2018-12-06T02:46:44.013Z,96783.63
2018-12-06T02:49:12.299Z,96784.66
2018-12-06T02:51:40.585Z,96772.85
2018-12-06T02:54:08.859Z,96771.34
2018-12-06T02:56:37.149Z,96780.77
2018-12-06T02:59:05.438Z,96779.44
2018-12-06T03:01:33.729Z,96773.66
2018-12-06T03:04:02.030Z,96768.55
2018-12-06T03:06:30.343Z,96770.81
2018-12-06T03:08:59.166Z,96764.89
2018-12-06T03:11:27.737Z,96759.44
2018-12-06T03:13:56.209Z,96773.11
2018-12-06T03:16:24.710Z,96763.23
2018-12-06T03:18:53.205Z,96758.41
2018-12-06T03:21:21.486Z,96755.23
2018-12-06T03:23:50.126Z,96749.00
2018-12-06T03:26:18.639Z,96748.27
2018-12-06T03:28:47.103Z,96736.49
2018-12-06T03:31:15.603Z,96739.91
2018-12-06T03:33:44.068Z,96740.16
2018-12-06T03:36:12.543Z,96738.86
2018-12-06T03:38:41.038Z,96742.02
2018-12-06T03:41:09.510Z,96752.67
2018-12-06T03:43:38.004Z,96752.38
2018-12-06T03:46:06.482Z,96758.85
2018-12-06T03:48:34.965Z,96762.19
2018-12-06T03:51:03.467Z,96766.74
2018-12-06T03:53:31.937Z,96766.00
2018-12-06T03:56:00.392Z,96764.38
2018-12-06T03:58:29.414Z,96764.95
2018-12-06T04:00:57.713Z,96768.77
2018-12-06T04:03:26.371Z,96765.33
2018-12-06T04:05:54.645Z,96766.20
2018-12-06T04:08:23.330Z,96775.06
2018-12-06T04:10:51.655Z,96775.16
2018-12-06T04:13:20.293Z,96773.94
2018-12-06T04:15:48.762Z,96778.81
2018-12-06T04:18:17.249Z,96773.98
2018-12-06T04:20:45.538Z,96777.98
2018-12-06T04:23:14.221Z,96788.38
2018-12-06T04:25:42.685Z,96790.83
2018-12-06T04:28:11.198Z,96800.03
2018-12-06T04:30:39.661Z,96795.32
2018-12-06T04:33:07.966Z,96801.47
2018-12-06T04:35:36.610Z,96805.30
2018-12-06T04:38:04.923Z,96804.55
2018-12-06T04:40:33.573Z,96795.41
2018-12-06T04:43:38.966Z,96799.34
2018-12-06T04:46:07.257Z,96805.72
2018-12-06T04:48:35.906Z,96794.27
2018-12-06T04:51:04.322Z,96801.69
2018-12-06T04:53:32.869Z,96793.98
2018-12-06T04:56:01.335Z,96785.69
2018-12-06T04:58:29.617Z,96777.48
2018-12-06T05:00:58.319Z,96781.98
2018-12-06T05:03:26.777Z,96783.86
2018-12-06T05:05:55.091Z,96784.45
2018-12-06T05:08:23.389Z,96784.84
2018-12-06T05:10:51.734Z,96781.46
2018-12-06T05:13:20.193Z,96784.16
2018-12-06T05:15:48.698Z,96777.98
2018-12-06T05:18:17.153Z,96781.50
2018-12-06T05:20:45.801Z,96777.88
2018-12-06T05:23:14.129Z,96777.04
2018-12-06T05:25:42.637Z,96780.30
2018-12-06T05:28:11.105Z,96789.04
2018-12-06T05:30:39.586Z,96793.72
2018-12-06T05:33:07.866Z,96792.70
2018-12-06T05:35:36.560Z,96794.86
2018-12-06T05:38:05.650Z,96802.31
2018-12-06T05:40:35.053Z,96806.02
2018-12-06T05:43:03.346Z,96815.91
2018-12-06T05:45:31.668Z,96813.73
2018-12-06T05:47:59.940Z,96820.02
2018-12-06T05:50:28.474Z,96828.41
2018-12-06T05:52:56.761Z,96840.55
2018-12-06T05:55:25.068Z,96851.39
2018-12-06T05:57:53.354Z,96869.58
2018-12-06T06:00:21.674Z,96871.86
2018-12-06T06:02:50.354Z,96869.58
2018-12-06T06:05:18.836Z,96871.11
2018-12-06T06:07:47.143Z,96876.22
2018-12-06T06:10:15.417Z,96879.11
2018-12-06T06:12:43.710Z,96877.48
2018-12-06T06:15:12.238Z,96876.45
2018-12-06T06:17:40.745Z,96887.52
2018-12-06T06:20:09.333Z,96888.85
2018-12-06T06:22:37.702Z,96902.20
2018-12-06T06:25:06.196Z,96900.67
2018-12-06T06:27:34.665Z,96901.81
2018-12-06T06:30:03.670Z,96914.86
2018-12-06T06:32:32.877Z,96926.23
2018-12-06T06:35:01.621Z,96933.48
2018-12-06T06:37:30.125Z,96929.91
2018-12-06T06:39:58.802Z,96934.30
2018-12-06T06:42:27.101Z,96927.08
2018-12-06T06:44:55.554Z,96926.30
2018-12-06T06:47:23.871Z,96922.45
2018-12-06T06:49:52.517Z,96909.92
2018-12-06T06:52:20.814Z,96902.17
2018-12-06T06:54:49.485Z,96896.83
2018-12-06T06:57:17.970Z,96894.72
2018-12-06T06:59:46.448Z,96892.27
2018-12-06T07:02:15.961Z,96896.11
2018-12-06T07:04:44.342Z,96897.45
2018-12-06T07:07:12.994Z,96908.39
2018-12-06T07:09:41.405Z,96926.20
2018-12-06T07:12:09.682Z,96928.74
2018-12-06T07:14:37.981Z,96939.98
2018-12-06T07:17:06.254Z,96944.57
2018-12-06T07:19:34.555Z,96952.28
2018-12-06T07:22:02.838Z,96962.61
2018-12-06T07:24:31.130Z,96960.20
2018-12-06T07:26:59.401Z,96964.92
2018-12-06T07:29:27.689Z,96971.96
2018-12-06T07:31:55.994Z,96975.19
2018-12-06T07:34:24.617Z,96977.66
2018-12-06T07:36:53.134Z,96985.94
2018-12-06T07:39:21.658Z,96987.59
2018-12-06T07:41:50.342Z,96997.80
2018-12-06T07:44:19.138Z,96997.27
2018-12-06T07:46:47.732Z,96995.48
2018-12-06T07:49:16.104Z,96998.37
2018-12-06T07:51:45.086Z,97000.56
2018-12-06T07:54:14.097Z,96997.66
2018-12-06T07:56:42.542Z,96988.31
2018-12-06T07:59:10.889Z,96982.93
2018-12-06T08:01:39.518Z,96985.60
2018-12-06T08:04:08.046Z,96979.78
2018-12-06T08:06:36.497Z,96978.20
2018-12-06T08:09:08.570Z,96981.29
2018-12-06T08:11:38.613Z,96977.73
2018-12-06T08:14:07.123Z,96992.75
2018-12-06T08:16:35.522Z,96991.13
2018-12-06T08:19:04.125Z,97001.44
2018-12-06T08:21:32.507Z,97014.31
2018-12-06T08:24:00.977Z,97012.98
2018-12-06T08:26:29.469Z,97029.89
2018-12-06T08:28:57.942Z,97024.05
2018-12-06T08:31:26.450Z,97022.55
2018-12-06T08:33:54.889Z,97038.99
2018-12-06T08:36:23.427Z,97046.35
2018-12-06T08:38:51.738Z,97048.91
2018-12-06T08:41:20.421Z,97041.64
2018-12-06T08:43:48.958Z,97047.50
2018-12-06T08:46:17.341Z,97046.91
2018-12-06T08:48:45.681Z,97038.59
2018-12-06T08:51:14.001Z,97031.16
2018-12-06T08:53:42.746Z,97035.19
2018-12-06T08:56:11.266Z,97030.48
2018-12-06T08:58:39.724Z,97027.38
2018-12-06T09:01:08.682Z,97031.73
2018-12-06T09:03:37.705Z,97033.77
2018-12-06T09:06:06.170Z,97035.22
2018-12-06T09:08:34.693Z,97028.73
2018-12-06T09:11:03.185Z,97035.22
2018-12-06T09:13:31.498Z,97032.17
2018-12-06T09:16:00.125Z,97034.09
2018-12-06T09:18:28.449Z,97044.27
2018-12-06T09:20:57.889Z,97042.34
2018-12-06T09:23:26.615Z,97050.14
2018-12-06T09:25:55.371Z,97062.58
2018-12-06T09:28:24.050Z,97066.51
2018-12-06T09:30:52.358Z,97068.75
2018-12-06T09:33:20.810Z,97072.06
2018-12-06T09:35:49.221Z,97065.80
2018-12-06T09:38:18.021Z,97060.62
2018-12-06T09:40:46.349Z,97072.55
2018-12-06T09:43:14.646Z,97076.77
2018-12-06T09:45:42.959Z,97079.35
2018-12-06T09:48:11.282Z,97079.94
2018-12-06T09:50:39.590Z,97084.63
2018-12-06T09:53:07.929Z,97090.70
2018-12-06T09:55:36.266Z,97079.78
2018-12-06T09:58:04.598Z,97098.55
2018-12-06T10:00:33.037Z,97095.84
2018-12-06T10:03:01.357Z,97094.53
2018-12-06T10:05:29.679Z,97093.53
2018-12-06T10:07:58.013Z,97091.55
2018-12-06T10:10:26.705Z,97093.16
2018-12-06T10:12:55.209Z,97075.72
2018-12-06T10:15:23.670Z,97079.86
2018-12-06T10:17:52.165Z,97076.44
2018-12-06T10:20:20.894Z,97067.44
2018-12-06T10:22:49.656Z,97056.92
2018-12-06T10:25:18.106Z,97051.00
2018-12-06T10:27:46.606Z,97044.66
2018-12-06T10:30:15.069Z,97036.08
2018-12-06T10:32:43.499Z,97021.28
2018-12-06T10:35:12.046Z,97019.77
2018-12-06T10:37:40.377Z,97013.70
2018-12-06T10:40:08.926Z,97014.91
2018-12-06T10:42:37.250Z,97021.55
2018-12-06T10:45:07.122Z,97028.64
2018-12-06T10:47:35.435Z,97033.11
2018-12-06T10:50:04.525Z,97027.11
2018-12-06T10:52:32.858Z,97026.45
2018-12-06T10:55:01.177Z,97025.47
2018-12-06T10:57:29.483Z,97021.27
2018-12-06T10:59:57.794Z,97027.86
2018-12-06T11:02:30.934Z,97040.95
2018-12-06T11:04:59.465Z,97048.34
2018-12-06T11:07:28.070Z,97048.52
2018-12-06T11:09:56.435Z,97044.69
2018-12-06T11:12:24.854Z,97049.78
2018-12-06T11:14:53.522Z,97057.56
2018-12-06T11:17:21.866Z,97070.23
2018-12-06T11:19:50.373Z,97071.92
2018-12-06T11:22:18.834Z,97073.31
2018-12-06T11:24:47.177Z,97073.20
2018-12-06T11:27:15.787Z,97081.30
2018-12-06T11:29:44.229Z,97082.26
2018-12-06T11:32:12.546Z,97080.80
2018-12-06T11:34:41.257Z,97068.61
2018-12-06T11:37:10.214Z,97060.00
2018-12-06T11:39:38.530Z,97060.66
2018-12-06T11:42:07.186Z,97058.86
2018-12-06T11:44:35.813Z,97047.72
2018-12-06T11:47:04.654Z,97067.58
2018-12-06T11:49:33.714Z,97057.38
2018-12-06T11:52:02.690Z,97056.38
2018-12-06T11:54:31.090Z,97054.47
2018-12-06T11:56:59.394Z,97060.66
2018-12-06T11:59:27.727Z,97060.72
2018-12-06T12:01:56.057Z,97065.25
2018-12-06T12:04:24.377Z,97063.18
2018-12-06T12:06:52.687Z,97060.50
2018-12-06T12:09:20.973Z,97063.24
2018-12-06T12:11:49.298Z,97067.16
2018-12-06T12:14:17.586Z,97061.79
2018-12-06T12:16:45.914Z,97067.38
2018-12-06T12:19:14.255Z,97054.77
2018-12-06T12:21:42.567Z,97055.91
2018-12-06T12:24:10.854Z,97062.06
2018-12-06T12:26:39.170Z,97059.03
2018-12-06T12:29:07.485Z,97061.82
2018-12-06T12:31:35.807Z,97061.48
2018-12-06T12:34:04.238Z,97064.17
2018-12-06T12:36:32.577Z,97062.77
2018-12-06T12:39:01.246Z,97047.78
2018-12-06T12:41:29.715Z,97046.81
2018-12-06T12:43:58.206Z,97050.28
2018-12-06T12:46:30.878Z,97047.80
2018-12-06T12:48:59.282Z,97068.13
2018-12-06T12:51:27.771Z,97060.59
2018-12-06T12:53:56.073Z,97068.92
2018-12-06T12:56:24.406Z,97073.94
2018-12-06T12:58:52.724Z,97074.77
2018-12-06T13:01:21.053Z,97080.36
2018-12-06T13:03:49.346Z,97073.94
2018-12-06T13:06:17.685Z,97071.80
2018-12-06T13:08:45.994Z,97067.19
2018-12-06T13:11:14.341Z,97064.88
2018-12-06T13:13:42.750Z,97065.74
2018-12-06T13:16:11.057Z,97059.09
2018-12-06T13:18:39.384Z,97060.20
2018-12-06T13:21:07.794Z,97068.30
2018-12-06T13:23:36.659Z,97074.43
2018-12-06T13:26:05.639Z,97081.66
2018-12-06T13:28:34.089Z,97089.95
2018-12-06T13:31:02.435Z,97092.31
2018-12-06T13:33:30.938Z,97093.44
2018-12-06T13:35:59.402Z,97088.55
2018-12-06T13:38:27.915Z,97078.97
2018-12-06T13:40:56.366Z,97081.36
2018-12-06T13:43:24.819Z,97075.14
2018-12-06T13:45:53.150Z,97081.91
2018-12-06T13:48:22.341Z,97080.02
2018-12-06T13:50:50.666Z,97083.23
2018-12-06T13:53:19.306Z,97079.51
2018-12-06T13:55:48.277Z,97074.73
2018-12-06T13:58:16.581Z,97077.35
2018-12-06T14:00:45.192Z,97064.76
2018-12-06T14:03:13.622Z,97059.92
2018-12-06T14:05:41.945Z,97056.56
2018-12-06T14:08:10.282Z,97056.53
2018-12-06T14:10:38.570Z,97061.08
2018-12-06T14:13:06.909Z,97071.52
2018-12-06T14:15:35.397Z,97065.67
2018-12-06T14:18:03.865Z,97077.39
2018-12-06T14:20:32.166Z,97076.06
2018-12-06T14:23:00.610Z,97071.17
2018-12-06T14:25:28.918Z,97068.23
2018-12-06T14:27:57.234Z,97061.98
2018-12-06T14:30:25.549Z,97069.36
2018-12-06T14:32:53.968Z,97088.37
2018-12-06T14:35:22.289Z,97084.33
2018-12-06T14:37:51.446Z,97085.61
2018-12-06T14:40:19.955Z,97086.95
2018-12-06T14:42:48.422Z,97083.52
2018-12-06T14:45:18.767Z,97077.16
2018-12-06T14:47:47.501Z,97078.62
2018-12-06T14:50:15.834Z,97078.11
2018-12-06T14:52:44.261Z,97076.75
2018-12-06T14:55:12.705Z,97074.67
2018-12-06T14:57:40.991Z,97074.43
2018-12-06T15:00:10.131Z,97082.13
2018-12-06T15:02:38.785Z,97072.16
2018-12-06T15:05:09.067Z,97077.17
2018-12-06T15:07:37.370Z,97073.16
2018-12-06T15:10:06.863Z,97080.31
2018-12-06T15:12:35.174Z,97082.17
2018-12-06T15:15:04.353Z,97086.41
2018-12-06T15:17:32.646Z,97083.73
2018-12-06T15:20:00.957Z,97085.53
2018-12-06T15:22:29.259Z,97084.55
2018-12-06T15:24:57.890Z,97091.13
2018-12-06T15:27:26.502Z,97088.86
2018-12-06T15:29:54.934Z,97078.43
2018-12-06T15:32:23.350Z,97088.95
2018-12-06T15:34:52.117Z,97092.62
2018-12-06T15:37:20.641Z,97099.25
2018-12-06T15:39:49.109Z,97100.92
2018-12-06T15:42:17.614Z,97098.53
2018-12-06T15:44:45.932Z,97086.69
2018-12-06T15:47:14.714Z,97089.50
2018-12-06T15:49:43.059Z,97098.59
2018-12-06T15:52:11.549Z,97089.22
2018-12-06T15:54:40.013Z,97101.09
2018-12-06T15:57:08.514Z,97107.28
2018-12-06T15:59:36.810Z,97108.33
2018-12-06T16:02:05.275Z,97095.00
2018-12-06T16:04:33.569Z,97093.64
2018-12-06T16:07:01.930Z,97101.16
2018-12-06T16:09:30.917Z,97098.19
2018-12-06T16:11:59.245Z,97100.70
2018-12-06T16:14:27.873Z,97093.11
2018-12-06T16:16:56.319Z,97091.02
2018-12-06T16:19:24.628Z,97089.03
2018-12-06T16:21:53.797Z,97090.14
2018-12-06T16:24:22.090Z,97093.37
2018-12-06T16:26:50.409Z,97088.07
2018-12-06T16:29:18.717Z,97082.77
2018-12-06T16:31:47.271Z,97084.47
2018-12-06T16:34:15.614Z,97089.57
2018-12-06T16:36:43.935Z,97083.05
2018-12-06T16:39:12.365Z,97089.28
2018-12-06T16:41:40.882Z,97087.66
2018-12-06T16:44:09.670Z,97087.88
2018-12-06T16:46:38.130Z,97088.36
2018-12-06T16:49:10.198Z,97084.56
2018-12-06T16:51:36.952Z,97082.52
2018-12-06T16:54:05.767Z,97087.23
2018-12-06T16:56:34.102Z,97093.11
2018-12-06T16:59:02.452Z,97093.66
2018-12-06T17:01:30.762Z,97098.80
2018-12-06T17:03:59.090Z,97095.13
2018-12-06T17:06:27.521Z,97087.48
2018-12-06T17:08:56.045Z,97096.91
2018-12-06T17:11:25.580Z,97100.07
2018-12-06T17:13:53.938Z,97100.87
2018-12-06T17:16:22.244Z,97101.98
2018-12-06T17:18:51.533Z,97109.79
2018-12-06T17:21:19.985Z,97111.66
2018-12-06T17:23:48.470Z,97113.41
2018-12-06T17:26:16.802Z,97119.02
2018-12-06T17:28:45.243Z,97129.23
2018-12-06T17:31:13.533Z,97126.18
2018-12-06T17:33:41.866Z,97118.14
2018-12-06T17:36:10.177Z,97113.08
2018-12-06T17:38:38.501Z,97109.86
2018-12-06T17:41:06.809Z,97101.81
2018-12-06T17:43:35.142Z,97104.22
2018-12-06T17:46:03.774Z,97100.31
2018-12-06T17:48:32.736Z,97098.50
2018-12-06T17:51:01.248Z,97095.89
2018-12-06T17:53:29.664Z,97094.70
2018-12-06T17:55:57.982Z,97096.53
2018-12-06T17:58:26.306Z,97089.83
2018-12-06T18:00:55.188Z,97086.09
2018-12-06T18:03:23.638Z,97086.95
2018-12-06T18:05:52.150Z,97085.97
2018-12-06T18:08:20.598Z,97081.96
2018-12-06T18:10:49.702Z,97075.48
2018-12-06T18:13:18.020Z,97078.22
2018-12-06T18:15:46.663Z,97082.05
2018-12-06T18:18:15.026Z,97075.02
2018-12-06T18:20:43.353Z,97073.52
2018-12-06T18:23:11.668Z,97068.35
2018-12-06T18:25:40.066Z,97070.70
2018-12-06T18:28:08.345Z,97061.98
2018-12-06T18:30:36.635Z,97065.81
2018-12-06T18:33:05.029Z,97060.68
2018-12-06T18:35:33.398Z,97053.45
2018-12-06T18:38:01.727Z,97058.00
2018-12-06T18:40:30.046Z,97047.28
2018-12-06T18:42:58.441Z,97044.02
2018-12-06T18:45:27.380Z,97052.55
2018-12-06T18:47:56.226Z,97048.89
2018-12-06T18:50:24.798Z,97055.54
2018-12-06T18:52:53.109Z,97051.06
2018-12-06T18:55:21.766Z,97055.30
2018-12-06T18:57:54.581Z,97056.12
2018-12-06T19:00:23.850Z,97053.50
2018-12-06T19:02:52.175Z,97049.82
2018-12-06T19:05:20.535Z,97043.87
2018-12-06T19:07:49.454Z,97045.07
2018-12-06T19:10:18.390Z,97041.39
2018-12-06T19:12:46.836Z,97044.88
2018-12-06T19:15:15.353Z,97049.95
2018-12-06T19:17:44.298Z,97050.25
2018-12-06T19:20:12.785Z,97051.88
2018-12-06T19:22:41.070Z,97061.27
2018-12-06T19:25:09.609Z,97061.55
2018-12-06T19:27:38.408Z,97055.67
2018-12-06T19:30:09.849Z,97059.21
2018-12-06T19:32:38.995Z,97068.83
2018-12-06T19:35:09.634Z,97055.42
2018-12-06T19:37:39.311Z,97065.58
2018-12-06T19:40:07.951Z,97061.66
2018-12-06T19:42:38.965Z,97062.46
2018-12-06T19:45:07.006Z,97054.95
2018-12-06T19:47:36.432Z,97043.88
2018-12-06T19:50:05.953Z,97034.50
2018-12-06T19:52:34.330Z,97040.92
2018-12-06T19:55:02.615Z,97043.60
2018-12-06T19:57:30.893Z,97045.70
2018-12-06T19:59:59.294Z,97042.20
2018-12-06T20:02:31.732Z,97041.91
2018-12-06T20:05:10.524Z,97045.03
2018-12-06T20:07:38.851Z,97035.59
2018-12-06T20:10:09.024Z,97041.25
2018-12-06T20:12:37.330Z,97040.08
2018-12-06T20:15:05.949Z,97040.34
2018-12-06T20:17:34.395Z,97045.98
2018-12-06T20:20:03.474Z,97040.85
2018-12-06T20:22:31.935Z,97037.40
2018-12-06T20:25:00.373Z,97039.00
2018-12-06T20:27:28.978Z,97045.74
2018-12-06T20:29:57.313Z,97046.27
2018-12-06T20:32:25.617Z,97043.36
2018-12-06T20:34:56.554Z,97043.45
2018-12-06T20:37:25.884Z,97040.80
2018-12-06T20:39:55.004Z,97043.02
2018-12-06T20:42:23.670Z,97034.45
2018-12-06T20:44:52.745Z,97031.52
2018-12-06T20:47:21.488Z,97021.03
2018-12-06T20:49:50.913Z,97025.62
2018-12-06T20:52:19.914Z,97016.23
2018-12-06T20:54:48.479Z,97024.04
2018-12-06T20:57:17.957Z,97014.08
2018-12-06T20:59:47.209Z,97019.41
2018-12-06T21:02:16.126Z,97017.53
2018-12-06T21:04:44.458Z,97014.28
2018-12-06T21:07:13.378Z,97022.03
2018-12-06T21:09:41.751Z,97015.08
2018-12-06T21:12:10.415Z,97016.95
2018-12-06T21:14:38.978Z,97006.75
2018-12-06T21:17:07.658Z,97008.30
2018-12-06T21:19:36.673Z,97007.03
2018-12-06T21:22:05.374Z,97015.62
2018-12-06T21:24:34.330Z,97003.50
2018-12-06T21:27:03.386Z,97009.44
2018-12-06T21:29:31.917Z,97003.83
2018-12-06T21:32:00.668Z,96999.56
2018-12-06T21:34:30.962Z,97003.31
2018-12-06T21:36:59.385Z,97011.16
2018-12-06T21:39:28.389Z,97011.16
2018-12-06T21:41:57.601Z,97002.83
2018-12-06T21:44:25.938Z,97004.70
2018-12-06T21:46:55.731Z,96999.14
2018-12-06T21:49:25.866Z,97010.73
2018-12-06T21:51:54.205Z,97011.02
2018-12-06T21:54:22.533Z,97013.41
2018-12-06T21:56:51.117Z,97016.62
2018-12-06T21:59:19.578Z,97015.56
2018-12-06T22:01:47.870Z,97017.11
2018-12-06T22:04:16.137Z,97015.27
2018-12-06T22:06:44.434Z,97017.67
2018-12-06T22:09:13.002Z,97001.86
2018-12-06T22:11:42.018Z,96999.71
2018-12-06T22:14:10.691Z,97000.52
2018-12-06T22:16:39.487Z,97007.23
2018-12-06T22:19:07.762Z,97013.13
2018-12-06T22:21:36.448Z,96997.88
2018-12-06T22:24:04.914Z,97004.34
2018-12-06T22:26:33.415Z,96996.82
2018-12-06T22:29:02.523Z,97001.58
2018-12-06T22:31:30.891Z,97007.84
2018-12-06T22:33:59.193Z,96999.75
2018-12-06T22:36:27.879Z,97009.15
2018-12-06T22:38:56.169Z,97006.22
2018-12-06T22:41:24.809Z,97011.02
2018-12-06T22:43:53.272Z,97010.49
2018-12-06T22:46:21.873Z,97009.43
2018-12-06T22:48:50.430Z,97010.20
2018-12-06T22:51:24.154Z,97010.19
2018-12-06T22:53:49.549Z,97012.59
2018-12-06T22:56:17.811Z,97011.74
2018-12-06T22:58:46.102Z,97017.11
2018-12-06T23:01:15.305Z,97009.25
2018-12-06T23:03:43.588Z,97008.47
2018-12-06T23:06:11.858Z,97007.63
2018-12-06T23:08:40.157Z,97005.94
2018-12-06T23:11:08.490Z,97010.77
2018-12-06T23:13:36.785Z,97003.27
2018-12-06T23:16:05.377Z,97002.11
2018-12-06T23:18:33.649Z,97005.13
2018-12-06T23:21:01.933Z,96995.17
2018-12-06T23:23:30.230Z,96994.59
2018-12-06T23:25:59.011Z,96995.17
2018-12-06T23:28:27.513Z,96989.59
2018-12-06T23:30:55.969Z,96984.48
2018-12-06T23:33:24.295Z,96981.31
2018-12-06T23:35:53.529Z,96984.23
2018-12-06T23:38:21.826Z,96979.73
2018-12-06T23:40:50.086Z,96981.06
2018-12-06T23:43:18.391Z,96984.77
2018-12-06T23:45:46.657Z,96979.65
2018-12-06T23:48:14.990Z,96978.87
2018-12-06T23:50:43.289Z,96983.19
2018-12-06T23:53:11.826Z,96969.82
2018-12-06T23:55:40.277Z,96976.53
2018-12-06T23:58:08.798Z,96964.70
